createdAt,value
2016-11-25T18:13:01.396Z,45.73
2016-11-25T18:13:29.646Z,46.13
2016-11-25T18:13:57.228Z,46.11
2016-11-25T18:14:25.159Z,46.4
2016-11-25T18:14:53.406Z,47.57
2016-11-25T18:15:21.056Z,47.18
2016-11-25T18:15:49.259Z,47.87
2016-11-25T18:16:16.884Z,47.28
2016-11-25T18:16:44.567Z,47.75
2016-11-25T18:17:12.170Z,47.65
2016-11-25T18:17:54.485Z,48.24
2016-11-25T18:18:22.304Z,48.04
2016-11-25T18:18:50.273Z,48.33
2016-11-25T18:19:18.200Z,48.21
2016-11-25T18:19:45.821Z,49.09
2016-11-25T18:20:13.419Z,49.07
2016-11-25T18:20:41.026Z,49.63
2016-11-25T18:21:08.671Z,50.61
2016-11-25T18:21:36.379Z,50.78
2016-11-25T18:22:04.364Z,50.68
2016-11-25T18:22:32.056Z,50.98
2016-11-25T18:23:00.511Z,51.82
2016-11-25T18:23:28.658Z,51.73
2016-11-25T18:23:56.637Z,51.73
2016-11-25T18:24:24.220Z,52.39
2016-11-25T18:24:52.769Z,53.07
2016-11-25T18:25:20.424Z,53.53
2016-11-25T18:25:48.386Z,53.73
2016-11-25T18:26:16.083Z,53.92
2016-11-25T18:26:43.661Z,54.77
2016-11-25T18:27:11.252Z,54.48
2016-11-25T18:27:39.184Z,54.77
2016-11-25T18:28:07.576Z,55.07
2016-11-25T18:28:35.287Z,54.97
2016-11-25T18:29:03.228Z,55.72
2016-11-25T18:29:45.828Z,55.91
2016-11-25T18:30:13.736Z,56.4
2016-11-25T18:30:41.439Z,56.01
2016-11-25T18:31:09.033Z,56.5
2016-11-25T18:31:36.654Z,56.6
2016-11-25T18:32:04.522Z,56.5
2016-11-25T18:32:32.059Z,56.6
2016-11-25T18:32:59.668Z,56.79
2016-11-25T18:33:27.663Z,56.96
2016-11-25T18:33:55.597Z,57.54
2016-11-25T18:34:23.547Z,58.32
2016-11-25T18:34:51.501Z,58.03
2016-11-25T18:35:19.414Z,58.87
2016-11-25T18:35:47.059Z,58.71
2016-11-25T18:36:14.963Z,58.71
2016-11-25T18:36:42.628Z,58.42
2016-11-25T18:37:10.343Z,58.32
2016-11-25T18:37:38.244Z,58.87
2016-11-25T18:38:06.209Z,58.87
2016-11-25T18:38:34.102Z,58.69
2016-11-25T18:39:01.764Z,58.97
2016-11-25T18:39:29.702Z,58.97
2016-11-25T18:39:57.585Z,58.87
2016-11-25T18:40:25.567Z,58.81
2016-11-25T18:40:53.556Z,57.93
2016-11-25T18:41:21.476Z,58.51
2016-11-25T18:41:49.069Z,57.84
2016-11-25T18:42:16.948Z,57.64
2016-11-25T18:42:44.877Z,57.45
2016-11-25T18:43:12.608Z,57.74
2016-11-25T18:43:40.203Z,57.64
2016-11-25T18:44:07.843Z,57.45
2016-11-25T18:44:35.485Z,57.45
2016-11-25T18:45:03.095Z,57.84
2016-11-25T18:45:31.300Z,58.03
2016-11-25T18:45:58.896Z,57.93
2016-11-25T18:46:26.669Z,57.67
2016-11-25T18:46:54.348Z,57.18
2016-11-25T18:47:22.033Z,56.89
2016-11-25T18:47:49.671Z,56.4
2016-11-25T18:48:17.337Z,55.91
2016-11-25T18:48:45.239Z,56.99
2016-11-25T18:49:13.115Z,56.96
2016-11-25T18:49:41.028Z,56.86
2016-11-25T18:50:08.587Z,57.54
2016-11-25T18:50:36.499Z,57.93
2016-11-25T18:51:04.378Z,57.84
2016-11-25T18:51:32.087Z,57.54
2016-11-25T18:51:59.819Z,57.45
2016-11-25T18:52:27.497Z,57.32
2016-11-25T18:52:55.536Z,58
2016-11-25T18:53:23.345Z,57.97
2016-11-25T18:53:50.986Z,58.56
2016-11-25T18:54:18.566Z,59.05
2016-11-25T18:54:46.575Z,58.56
2016-11-25T18:55:14.619Z,59.43
2016-11-25T18:55:42.289Z,59.33
2016-11-25T18:56:10.214Z,59.43
2016-11-25T18:57:20.115Z,58.85
2016-11-25T18:57:47.685Z,59.43
2016-11-25T18:58:15.398Z,59.72
2016-11-25T18:58:43.431Z,59.41
2016-11-25T18:59:11.111Z,59.89
2016-11-25T18:59:38.981Z,59.99
2016-11-25T19:00:06.955Z,60.05
2016-11-25T19:00:34.616Z,61.12
2016-11-25T19:01:02.511Z,61.77
2016-11-25T19:01:30.185Z,62.45
2016-11-25T19:01:57.900Z,62.45
2016-11-25T19:02:25.524Z,62.35
2016-11-25T19:02:53.129Z,62.94
2016-11-25T19:03:20.725Z,63.23
2016-11-25T19:03:48.579Z,63.23
2016-11-25T19:04:16.377Z,63.13
2016-11-25T19:04:43.995Z,62.87
2016-11-25T19:05:11.627Z,62.94
2016-11-25T19:05:39.248Z,62.19
2016-11-25T19:06:06.891Z,62.68
2016-11-25T19:06:35.081Z,61.61
2016-11-25T19:07:03.557Z,62.1
2016-11-25T19:07:31.555Z,61.9
2016-11-25T19:07:59.206Z,61.8
2016-11-25T19:08:26.858Z,62.84
2016-11-25T19:08:54.588Z,62.26
2016-11-25T19:09:22.476Z,63.04
2016-11-25T19:09:50.938Z,63.04
2016-11-25T19:10:18.892Z,63.04
2016-11-25T19:10:46.807Z,62.94
2016-11-25T19:11:14.764Z,63.32
2016-11-25T19:11:42.499Z,63.32
2016-11-25T19:12:10.425Z,63.52
2016-11-25T19:12:38.336Z,63.81
2016-11-25T19:13:06.393Z,64.65
2016-11-25T19:13:34.344Z,64.65
2016-11-25T19:14:01.989Z,64.82
2016-11-25T19:14:29.714Z,65.2
2016-11-25T19:14:57.724Z,65.3
2016-11-25T19:15:25.415Z,65.2
2016-11-25T19:15:53.436Z,65.05
2016-11-25T19:16:21.500Z,65.01
2016-11-25T19:16:49.498Z,64.62
2016-11-25T19:17:17.467Z,64.85
2016-11-25T19:17:45.190Z,65.14
2016-11-25T19:18:12.903Z,64.85
2016-11-25T19:18:41.239Z,64.95
2016-11-25T19:19:08.950Z,64.36
2016-11-25T19:19:36.686Z,64.85
2016-11-25T19:20:04.519Z,64.36
2016-11-25T19:20:32.261Z,64.26
2016-11-25T19:21:00.219Z,64.56
2016-11-25T19:21:27.841Z,64.36
2016-11-25T19:21:55.886Z,64.75
2016-11-25T19:22:23.528Z,64.36
2016-11-25T19:22:51.809Z,63.78
2016-11-25T19:23:19.526Z,63.78
2016-11-25T19:23:47.348Z,63.88
2016-11-25T19:24:14.992Z,64.46
2016-11-25T19:24:42.703Z,64.46
2016-11-25T19:25:10.474Z,64.56
2016-11-25T19:25:38.157Z,64.65
2016-11-25T19:26:06.504Z,65.11
2016-11-25T19:26:34.186Z,65.01
2016-11-25T19:27:01.926Z,65.69
2016-11-25T19:27:29.645Z,66.24
2016-11-25T19:27:57.773Z,66.44
2016-11-25T19:28:25.850Z,66.34
2016-11-25T19:28:53.752Z,66.63
2016-11-25T19:29:21.712Z,66.34
2016-11-25T19:29:50.618Z,66.53
2016-11-25T19:30:18.347Z,66.5
2016-11-25T19:30:46.441Z,67.69
2016-11-25T19:31:14.195Z,67.76
2016-11-25T19:31:42.168Z,68.05
2016-11-25T19:32:09.957Z,67.76
2016-11-25T19:32:38.379Z,68.44
2016-11-25T19:33:06.510Z,67.95
2016-11-25T19:33:34.330Z,67.76
2016-11-25T19:34:02.258Z,67.57
2016-11-25T19:34:30.031Z,67.85
2016-11-25T19:34:58.177Z,67.99
2016-11-25T19:35:26.237Z,67.69
2016-11-25T19:35:54.529Z,67.47
2016-11-25T19:36:22.310Z,67.69
2016-11-25T19:36:50.349Z,67.69
2016-11-25T19:37:18.538Z,67.6
2016-11-25T19:37:46.584Z,67.66
2016-11-25T19:38:14.400Z,68.08
2016-11-25T19:38:42.208Z,67.85
2016-11-25T19:39:09.949Z,68.05
2016-11-25T19:39:38.267Z,67.6
2016-11-25T19:40:06.396Z,67.95
2016-11-25T19:40:34.647Z,67.95
2016-11-25T19:41:02.496Z,68.34
2016-11-25T19:41:30.829Z,68.34
2016-11-25T19:41:58.783Z,68.54
2016-11-25T19:42:26.862Z,68.63
2016-11-25T19:42:54.723Z,68.73
2016-11-25T19:43:22.854Z,68.73
2016-11-25T19:43:50.611Z,68.34
2016-11-25T19:44:18.400Z,68.63
2016-11-25T19:44:47.350Z,68.92
2016-11-25T19:45:15.772Z,68.82
2016-11-25T19:45:43.720Z,69.7
2016-11-25T19:46:11.713Z,69.5
2016-11-25T19:46:40.070Z,69.5
2016-11-25T19:47:08.860Z,69.47
2016-11-25T19:47:37.000Z,69.37
2016-11-25T19:48:04.850Z,69.47
2016-11-25T19:48:33.172Z,69.67
2016-11-25T19:49:01.691Z,69.57
2016-11-25T19:49:29.609Z,69.57
2016-11-25T19:49:57.370Z,69.76
2016-11-25T19:50:25.384Z,69.85
2016-11-25T19:50:53.831Z,69.7
2016-11-25T19:51:21.596Z,69.31
2016-11-25T19:51:49.492Z,69.6
2016-11-25T19:52:18.284Z,69.31
2016-11-25T19:52:46.250Z,69.5
2016-11-25T19:53:14.180Z,69.31
2016-11-25T19:53:42.073Z,69.12
2016-11-25T19:54:11.019Z,69.21
2016-11-25T19:54:39.051Z,69.41
2016-11-25T19:55:07.118Z,69.31
2016-11-25T19:55:35.063Z,69.21
2016-11-25T19:56:45.831Z,69.76
2016-11-25T19:57:13.812Z,69.57
2016-11-25T19:57:41.956Z,69.67
2016-11-25T19:58:09.920Z,70.25
2016-11-25T19:58:38.027Z,69.95
2016-11-25T19:59:06.127Z,69.85
2016-11-25T19:59:34.109Z,69.95
2016-11-25T20:00:02.158Z,69.95
2016-11-25T20:00:30.340Z,70.92
2016-11-25T20:00:58.076Z,70.73
2016-11-25T20:01:25.953Z,71.18
2016-11-25T20:01:54.039Z,70.83
2016-11-25T20:02:22.174Z,70.73
2016-11-25T20:02:50.304Z,71.28
2016-11-25T20:03:18.892Z,71.5
2016-11-25T20:03:47.042Z,71.47
2016-11-25T20:04:15.252Z,71.37
2016-11-25T20:04:44.541Z,71.18
2016-11-25T20:05:12.607Z,71.86
2016-11-25T20:05:40.972Z,72.15
2016-11-25T20:06:09.498Z,72.34
2016-11-25T20:06:37.495Z,72.53
2016-11-25T20:07:05.752Z,72.79
2016-11-25T20:07:34.125Z,72.53
2016-11-25T20:08:02.653Z,72.73
2016-11-25T20:08:31.493Z,72.34
2016-11-25T20:08:59.492Z,72.53
2016-11-25T20:09:27.995Z,72.73
2016-11-25T20:09:55.983Z,72.92
2016-11-25T20:10:24.422Z,72.24
2016-11-25T20:10:52.391Z,72.73
2016-11-25T20:11:21.422Z,72.73
2016-11-25T20:11:49.607Z,72.53
2016-11-25T20:12:17.672Z,72.53
2016-11-25T20:12:45.611Z,72.98
2016-11-25T20:13:13.684Z,73.37
2016-11-25T20:13:41.648Z,73.47
2016-11-25T20:14:10.088Z,73.75
2016-11-25T20:14:38.289Z,73.57
2016-11-25T20:15:06.947Z,73.41
2016-11-25T20:15:34.873Z,73.66
2016-11-25T20:16:03.211Z,73.5
2016-11-25T20:16:31.798Z,73.5
2016-11-25T20:17:00.063Z,73.5
2016-11-25T20:17:28.493Z,73.6
2016-11-25T20:17:56.704Z,74.18
2016-11-25T20:18:25.039Z,73.69
2016-11-25T20:18:53.423Z,73.31
2016-11-25T20:19:22.259Z,72.92
2016-11-25T20:19:50.580Z,72.92
2016-11-25T20:20:18.644Z,72.53
2016-11-25T20:20:46.794Z,72.73
2016-11-25T20:21:15.095Z,72.53
2016-11-25T20:21:43.651Z,72.44
2016-11-25T20:22:12.230Z,72.83
2016-11-25T20:22:40.744Z,72.24
2016-11-25T20:23:09.259Z,72.34
2016-11-25T20:23:37.637Z,72.44
2016-11-25T20:24:06.109Z,72.63
2016-11-25T20:24:34.611Z,72.73
2016-11-25T20:25:03.002Z,72.63
2016-11-25T20:25:31.423Z,72.92
2016-11-25T20:25:59.617Z,72.92
2016-11-25T20:26:27.824Z,73.11
2016-11-25T20:26:56.876Z,73.21
2016-11-25T20:27:25.034Z,73.31
2016-11-25T20:27:53.197Z,73.5
2016-11-25T20:28:21.420Z,74.34
2016-11-25T20:28:49.886Z,74.43
2016-11-25T20:29:18.107Z,74.92
2016-11-25T20:29:46.546Z,74.88
2016-11-25T20:30:14.788Z,75.4
2016-11-25T20:30:43.614Z,74.79
2016-11-25T20:31:12.193Z,75.27
2016-11-25T20:31:41.177Z,75.65
2016-11-25T20:32:09.564Z,75.56
2016-11-25T20:32:37.982Z,75.56
2016-11-25T20:33:06.523Z,75.85
2016-11-25T20:33:34.806Z,76.72
2016-11-25T20:34:02.986Z,76.53
2016-11-25T20:34:31.265Z,75.85
2016-11-25T20:35:00.158Z,76.62
2016-11-25T20:35:28.493Z,76.33
2016-11-25T20:35:57.459Z,75.85
2016-11-25T20:36:25.829Z,76.14
2016-11-25T20:36:54.928Z,75.95
2016-11-25T20:37:23.594Z,76.14
2016-11-25T20:37:51.693Z,75.95
2016-11-25T20:38:19.901Z,76.43
2016-11-25T20:38:48.591Z,76.14
2016-11-25T20:39:16.854Z,76.87
2016-11-25T20:39:45.515Z,76.59
2016-11-25T20:40:13.826Z,76.68
2016-11-25T20:40:42.018Z,76.49
2016-11-25T20:41:10.318Z,76.68
2016-11-25T20:41:38.564Z,76.87
2016-11-25T20:42:06.858Z,76.53
2016-11-25T20:42:35.622Z,76.01
2016-11-25T20:43:04.791Z,76.2
2016-11-25T20:43:32.921Z,76.97
2016-11-25T20:44:01.590Z,76.97
2016-11-25T20:44:30.392Z,76.78
2016-11-25T20:44:58.704Z,76.87
2016-11-25T20:45:27.393Z,76.59
2016-11-25T20:45:55.692Z,76.68
2016-11-25T20:46:24.422Z,76.68
2016-11-25T20:46:53.013Z,76.78
2016-11-25T20:47:21.104Z,76.59
2016-11-25T20:47:49.805Z,77.26
2016-11-25T20:48:18.050Z,77.55
2016-11-25T20:48:46.134Z,77.45
2016-11-25T20:49:14.364Z,77.55
2016-11-25T20:49:43.259Z,77.61
2016-11-25T20:50:11.967Z,77.13
2016-11-25T20:50:40.448Z,78
2016-11-25T20:51:08.671Z,77.94
2016-11-25T20:51:37.011Z,78
2016-11-25T20:52:05.795Z,77.9
2016-11-25T20:52:33.786Z,78
2016-11-25T20:53:02.011Z,78.09
2016-11-25T20:53:30.536Z,78.09
2016-11-25T20:53:59.012Z,78.19
2016-11-25T20:54:27.209Z,78.29
2016-11-25T20:54:55.809Z,78.67
2016-11-25T20:55:24.207Z,77.8
2016-11-25T20:55:52.480Z,78.19
2016-11-25T20:56:21.005Z,78.29
2016-11-25T20:56:49.174Z,78.09
2016-11-25T20:57:17.376Z,78.44
2016-11-25T20:57:46.250Z,79.12
2016-11-25T20:58:14.325Z,79.6
2016-11-25T20:58:42.895Z,79.6
2016-11-25T20:59:11.505Z,79.89
2016-11-25T20:59:39.828Z,79.22
2016-11-25T21:00:08.184Z,80.08
2016-11-25T21:00:36.304Z,79.41
2016-11-25T21:01:04.570Z,79.45
2016-11-25T21:01:32.607Z,79.74
2016-11-25T21:02:00.778Z,79.64
2016-11-25T21:02:28.981Z,78.73
2016-11-25T21:02:57.023Z,78.77
2016-11-25T21:03:25.440Z,78.77
2016-11-25T21:03:53.644Z,78.73
2016-11-25T21:04:21.602Z,78.73
2016-11-25T21:04:49.810Z,79.5
2016-11-25T21:05:17.890Z,79.5
2016-11-25T21:05:45.987Z,79.8
2016-11-25T21:06:14.194Z,79.99
2016-11-25T21:06:42.774Z,80.18
2016-11-25T21:07:10.609Z,79.8
2016-11-25T21:07:40.142Z,79.7
2016-11-25T21:08:08.067Z,79.7
2016-11-25T21:08:36.006Z,79.02
2016-11-25T21:09:04.163Z,79.41
2016-11-25T21:09:32.240Z,79.12
2016-11-25T21:10:00.246Z,78.92
2016-11-25T21:10:28.123Z,78.77
2016-11-25T21:10:55.953Z,78.77
2016-11-25T21:11:23.844Z,79.06
2016-11-25T21:11:51.798Z,78.48
2016-11-25T21:12:19.779Z,78.19
2016-11-25T21:12:47.837Z,78.19
2016-11-25T21:13:15.951Z,78.48
2016-11-25T21:13:43.926Z,79.16
2016-11-25T21:14:12.029Z,78.87
2016-11-25T21:14:39.976Z,78.73
2016-11-25T21:15:08.852Z,78.92
2016-11-25T21:15:36.815Z,79.7
2016-11-25T21:16:05.125Z,79.22
2016-11-25T21:16:33.515Z,79.8
2016-11-25T21:17:01.344Z,79.22
2016-11-25T21:17:29.229Z,79.12
2016-11-25T21:17:57.420Z,79.6
2016-11-25T21:18:26.157Z,79.7
2016-11-25T21:18:54.650Z,79.8
2016-11-25T21:19:23.125Z,79.5
2016-11-25T21:19:50.875Z,79.8
2016-11-25T21:20:18.868Z,80.18
2016-11-25T21:20:47.279Z,80.28
2016-11-25T21:21:14.956Z,80.38
2016-11-25T21:21:42.778Z,80.28
2016-11-25T21:22:10.603Z,80.08
2016-11-25T21:22:38.424Z,80.18
2016-11-25T21:23:06.151Z,80.47
2016-11-25T21:23:34.310Z,80.57
2016-11-25T21:24:03.729Z,80.86
2016-11-25T21:24:31.994Z,81.44
2016-11-25T21:24:59.797Z,81.34
2016-11-25T21:25:27.933Z,80.66
2016-11-25T21:25:55.723Z,80.95
2016-11-25T21:26:23.561Z,81.24
2016-11-25T21:26:51.417Z,81.92
2016-11-25T21:27:19.875Z,81.92
2016-11-25T21:27:48.245Z,81.53
2016-11-25T21:28:16.003Z,81.82
2016-11-25T21:28:43.655Z,81.98
2016-11-25T21:29:11.413Z,82.02
2016-11-25T21:29:39.136Z,82.46
2016-11-25T21:30:06.814Z,82.46
2016-11-25T21:30:34.865Z,83.14
2016-11-25T21:31:02.502Z,83.14
2016-11-25T21:31:30.452Z,83.14
2016-11-25T21:31:58.181Z,83.14
2016-11-25T21:32:25.974Z,83.33
2016-11-25T21:32:54.179Z,82.84
2016-11-25T21:33:21.836Z,83.72
2016-11-25T21:33:49.521Z,83.42
2016-11-25T21:34:17.594Z,83.23
2016-11-25T21:34:45.796Z,83.52
2016-11-25T21:35:13.525Z,83.42
2016-11-25T21:35:41.411Z,83.42
2016-11-25T21:36:09.039Z,83.23
2016-11-25T21:36:37.068Z,83.33
2016-11-25T21:37:04.801Z,83.62
2016-11-25T21:37:32.437Z,83.91
2016-11-25T21:38:00.065Z,83.91
2016-11-25T21:38:27.706Z,84.58
2016-11-25T21:38:55.403Z,84.2
2016-11-25T21:39:23.057Z,83.91
2016-11-25T21:39:50.660Z,84.48
2016-11-25T21:40:18.631Z,84.3
2016-11-25T21:40:46.391Z,84.68
2016-11-25T21:41:14.043Z,84.78
2016-11-25T21:41:41.680Z,84.64
2016-11-25T21:42:09.995Z,84.58
2016-11-25T21:42:37.950Z,84.78
2016-11-25T21:43:06.037Z,84.68
2016-11-25T21:43:34.022Z,84.3
2016-11-25T21:44:01.594Z,84.48
2016-11-25T21:44:29.825Z,84.3
2016-11-25T21:44:57.532Z,84.78
2016-11-25T21:45:25.316Z,84.68
2016-11-25T21:45:53.223Z,84.2
2016-11-25T21:46:20.873Z,84.39
2016-11-25T21:46:48.507Z,84.48
2016-11-25T21:47:16.106Z,84.97
2016-11-25T21:47:43.743Z,84.78
2016-11-25T21:48:11.686Z,84.68
2016-11-25T21:48:39.557Z,84.83
2016-11-25T21:49:07.465Z,84.48
2016-11-25T21:49:35.040Z,84.68
2016-11-25T21:50:02.697Z,84.3
2016-11-25T21:50:30.521Z,84.58
2016-11-25T21:50:58.656Z,84.44
2016-11-25T21:51:26.342Z,84.74
2016-11-25T21:51:54.236Z,84.54
2016-11-25T21:52:22.414Z,84.44
2016-11-25T21:52:49.990Z,84.58
2016-11-25T21:53:17.905Z,84.54
2016-11-25T21:53:45.674Z,84.68
2016-11-25T21:54:13.290Z,84.35
2016-11-25T21:54:40.996Z,84.06
2016-11-25T21:55:08.930Z,84.1
2016-11-25T21:55:36.922Z,84.35
2016-11-25T21:56:04.568Z,83.72
2016-11-25T21:56:32.591Z,84.25
2016-11-25T21:57:00.526Z,84.25
2016-11-25T21:57:28.192Z,84.74
2016-11-25T21:57:56.528Z,84.44
2016-11-25T21:58:24.235Z,84.74
2016-11-25T21:58:51.910Z,84.54
2016-11-25T21:59:19.489Z,85.22
2016-11-25T21:59:47.459Z,85.5
2016-11-25T22:00:15.085Z,85.5
2016-11-25T22:00:57.339Z,85.99
2016-11-25T22:01:24.956Z,85.99
2016-11-25T22:01:52.523Z,86.28
2016-11-25T22:02:20.513Z,85.99
2016-11-25T22:02:48.368Z,86.08
2016-11-25T22:03:15.979Z,85.5
2016-11-25T22:03:43.915Z,85.89
2016-11-25T22:04:11.858Z,85.89
2016-11-25T22:04:39.451Z,85.12
2016-11-25T22:05:07.318Z,84.93
2016-11-25T22:05:35.002Z,85.31
2016-11-25T22:06:02.929Z,85.12
2016-11-25T22:06:30.820Z,84.83
2016-11-25T22:06:59.566Z,84.93
2016-11-25T22:07:27.205Z,84.25
2016-11-25T22:07:55.150Z,84.35
2016-11-25T22:08:23.021Z,84.06
2016-11-25T22:08:50.619Z,84.16
2016-11-25T22:09:18.302Z,84.16
2016-11-25T22:09:45.925Z,84.06
2016-11-25T22:10:13.531Z,83.96
2016-11-25T22:10:41.407Z,84.83
2016-11-25T22:11:09.011Z,84.35
2016-11-25T22:11:36.627Z,84.35
2016-11-25T22:12:04.205Z,84.25
2016-11-25T22:12:31.862Z,84.74
2016-11-25T22:12:59.691Z,84.44
2016-11-25T22:13:27.402Z,84.35
2016-11-25T22:13:55.035Z,84.54
2016-11-25T22:14:23.028Z,84.54
2016-11-25T22:14:50.644Z,84.64
2016-11-25T22:15:18.241Z,84.06
2016-11-25T22:15:46.411Z,84.16
2016-11-25T22:16:13.965Z,83.96
2016-11-25T22:16:41.578Z,84.64
2016-11-25T22:17:09.272Z,84.35
2016-11-25T22:17:37.443Z,84.74
2016-11-25T22:18:05.047Z,85.8
2016-11-25T22:18:32.951Z,86.08
2016-11-25T22:19:00.903Z,85.66
2016-11-25T22:19:28.538Z,86.33
2016-11-25T22:19:56.211Z,86.24
2016-11-25T22:20:23.852Z,86.33
2016-11-25T22:20:52.195Z,86.18
2016-11-25T22:21:20.130Z,86.52
2016-11-25T22:21:48.192Z,86.08
2016-11-25T22:22:15.818Z,86.33
2016-11-25T22:22:44.042Z,85.85
2016-11-25T22:23:11.648Z,85.94
2016-11-25T22:23:39.310Z,86.18
2016-11-25T22:24:06.945Z,86.38
2016-11-25T22:24:34.583Z,86.24
2016-11-25T22:25:02.505Z,86.38
2016-11-25T22:25:30.467Z,85.89
2016-11-25T22:25:58.389Z,85.99
2016-11-25T22:26:26.348Z,85.41
2016-11-25T22:26:53.957Z,85.99
2016-11-25T22:27:21.895Z,85.99
2016-11-25T22:27:50.012Z,86.28
2016-11-25T22:28:17.695Z,85.99
2016-11-25T22:28:45.260Z,86.28
2016-11-25T22:29:12.885Z,86.72
2016-11-25T22:29:40.540Z,86.24
2016-11-25T22:30:08.149Z,86.43
2016-11-25T22:30:35.648Z,87.1
2016-11-25T22:31:03.576Z,87.01
2016-11-25T22:31:31.498Z,87.78
2016-11-25T22:31:59.166Z,87.1
2016-11-25T22:32:27.064Z,87.59
2016-11-25T22:32:54.633Z,87.78
2016-11-25T22:33:22.469Z,87.78
2016-11-25T22:33:50.035Z,87.4
2016-11-25T22:34:17.611Z,88.17
2016-11-25T22:34:45.872Z,87.68
2016-11-25T22:35:13.477Z,87.97
2016-11-25T22:35:41.062Z,87.59
2016-11-25T22:36:08.848Z,87.78
2016-11-25T22:36:36.497Z,88.07
2016-11-25T22:37:04.462Z,87.78
2016-11-25T22:37:32.474Z,87.97
2016-11-25T22:38:00.411Z,87.78
2016-11-25T22:38:28.416Z,87.3
2016-11-25T22:38:56.021Z,87.2
2016-11-25T22:39:23.642Z,87.49
2016-11-25T22:39:51.361Z,87.2
2016-11-25T22:40:19.257Z,87.4
2016-11-25T22:40:46.982Z,87.3
2016-11-25T22:41:14.919Z,86.43
2016-11-25T22:41:42.859Z,86.72
2016-11-25T22:42:10.419Z,86.43
2016-11-25T22:42:38.067Z,86.62
2016-11-25T22:43:05.673Z,86.91
2016-11-25T22:43:33.892Z,87.1
2016-11-25T22:44:01.588Z,87.3
2016-11-25T22:44:29.231Z,87.01
2016-11-25T22:44:57.467Z,87.49
2016-11-25T22:45:25.355Z,87.78
2016-11-25T22:45:52.951Z,87.49
2016-11-25T22:46:20.555Z,87.3
2016-11-25T22:46:48.200Z,87.3
2016-11-25T22:47:16.077Z,87.3
2016-11-25T22:47:43.702Z,87.3
2016-11-25T22:48:11.293Z,87.01
2016-11-25T22:48:39.199Z,87.88
2016-11-25T22:49:06.845Z,87.4
2016-11-25T22:49:34.802Z,87.59
2016-11-25T22:50:02.455Z,87.49
2016-11-25T22:50:30.095Z,86.72
2016-11-25T22:50:57.717Z,87.2
2016-11-25T22:51:25.606Z,86.72
2016-11-25T22:51:53.542Z,86.76
2016-11-25T22:52:21.236Z,86.66
2016-11-25T22:52:48.916Z,86.62
2016-11-25T22:53:16.821Z,86.91
2016-11-25T22:53:44.429Z,86.28
2016-11-25T22:54:12.330Z,86.18
2016-11-25T22:54:40.224Z,86.24
2016-11-25T22:55:08.124Z,86.08
2016-11-25T22:55:36.357Z,86.47
2016-11-25T22:56:04.148Z,86.28
2016-11-25T22:56:31.773Z,86.38
2016-11-25T22:56:59.663Z,86.18
2016-11-25T22:57:27.551Z,86.18
2016-11-25T22:57:55.101Z,85.99
2016-11-25T22:58:23.146Z,85.8
2016-11-25T22:58:51.273Z,85.99
2016-11-25T22:59:18.903Z,86.08
2016-11-25T22:59:46.735Z,86.18
2016-11-25T23:00:14.653Z,86.18
2016-11-25T23:00:42.538Z,86.24
2016-11-25T23:01:10.168Z,86.28
2016-11-25T23:01:38.107Z,86.18
2016-11-25T23:02:05.829Z,86.18
2016-11-25T23:02:33.403Z,86.18
2016-11-25T23:03:01.284Z,86.28
2016-11-25T23:03:29.191Z,86.28
2016-11-25T23:03:56.775Z,86.38
2016-11-25T23:04:24.404Z,86.47
2016-11-25T23:04:51.991Z,86.08
2016-11-25T23:05:19.854Z,85.8
2016-11-25T23:05:47.474Z,86.08
2016-11-25T23:06:15.489Z,85.99
2016-11-25T23:06:43.086Z,86.38
2016-11-25T23:07:11.313Z,86.47
2016-11-25T23:07:38.924Z,86.18
2016-11-25T23:08:06.856Z,86.24
2016-11-25T23:08:34.501Z,86.14
2016-11-25T23:09:02.370Z,86.28
2016-11-25T23:09:30.267Z,86.33
2016-11-25T23:09:58.286Z,86.86
2016-11-25T23:10:26.205Z,86.43
2016-11-25T23:10:53.961Z,86.91
2016-11-25T23:11:21.555Z,87.4
2016-11-25T23:11:49.445Z,87.01
2016-11-25T23:12:17.215Z,87.3
2016-11-25T23:12:44.773Z,87.78
2016-11-25T23:13:12.702Z,87.68
2016-11-25T23:13:40.847Z,87.49
2016-11-25T23:14:08.805Z,87.49
2016-11-25T23:14:36.436Z,88.07
2016-11-25T23:15:04.635Z,87.78
2016-11-25T23:15:32.508Z,87.97
2016-11-25T23:16:00.118Z,87.4
2016-11-25T23:16:27.732Z,87.4
2016-11-25T23:16:55.343Z,87.59
2016-11-25T23:17:22.934Z,87.3
2016-11-25T23:17:50.889Z,87.3
2016-11-25T23:18:18.558Z,87.49
2016-11-25T23:18:46.110Z,87.4
2016-11-25T23:19:13.944Z,87.59
2016-11-25T23:19:41.687Z,87.78
2016-11-25T23:20:09.566Z,87.4
2016-11-25T23:20:37.196Z,87.88
2016-11-25T23:21:05.006Z,87.78
2016-11-25T23:21:32.611Z,87.68
2016-11-25T23:22:00.217Z,88.07
2016-11-25T23:22:27.840Z,87.78
2016-11-25T23:22:55.514Z,87.68
2016-11-25T23:23:23.404Z,87.78
2016-11-25T23:23:51.330Z,87.97
2016-11-25T23:24:18.947Z,87.78
2016-11-25T23:24:46.861Z,87.4
2016-11-25T23:25:14.522Z,87.4
2016-11-25T23:25:42.152Z,87.2
2016-11-25T23:26:09.834Z,87.4
2016-11-25T23:26:37.442Z,87.78
2016-11-25T23:27:05.285Z,87.3
2016-11-25T23:27:32.866Z,87.49
2016-11-25T23:28:00.719Z,87.49
2016-11-25T23:28:28.593Z,87.59
2016-11-25T23:28:56.237Z,87.49
2016-11-25T23:29:24.104Z,87.49
2016-11-25T23:29:51.735Z,87.49
2016-11-25T23:30:19.336Z,87.2
2016-11-25T23:30:46.876Z,87.78
2016-11-25T23:31:14.733Z,87.4
2016-11-25T23:31:42.346Z,87.78
2016-11-25T23:32:09.977Z,87.97
2016-11-25T23:32:37.865Z,88.07
2016-11-25T23:33:05.447Z,87.59
2016-11-25T23:33:33.022Z,87.3
2016-11-25T23:34:00.891Z,87.49
2016-11-25T23:34:28.821Z,87.97
2016-11-25T23:34:56.405Z,87.78
2016-11-25T23:35:24.269Z,87.78
2016-11-25T23:35:51.808Z,87.59
2016-11-25T23:36:19.451Z,87.68
2016-11-25T23:36:47.690Z,87.68
2016-11-25T23:37:15.298Z,87.68
2016-11-25T23:37:42.874Z,87.78
2016-11-25T23:38:10.503Z,87.78
2016-11-25T23:38:38.111Z,87.88
2016-11-25T23:39:06.086Z,88.17
2016-11-25T23:39:34.396Z,87.78
2016-11-25T23:40:02.286Z,88.7
2016-11-25T23:40:29.860Z,88.41
2016-11-25T23:40:57.415Z,88.51
2016-11-25T23:41:25.347Z,88.89
2016-11-25T23:41:53.070Z,88.12
2016-11-25T23:42:21.006Z,88.31
2016-11-25T23:42:48.660Z,88.41
2016-11-25T23:43:16.296Z,88.51
2016-11-25T23:43:44.159Z,88.51
2016-11-25T23:44:11.821Z,87.74
2016-11-25T23:44:39.395Z,87.93
2016-11-25T23:45:07.314Z,87.97
2016-11-25T23:45:34.937Z,87.74
2016-11-25T23:46:02.551Z,87.74
2016-11-25T23:46:30.142Z,87.97
2016-11-25T23:46:57.758Z,87.93
2016-11-25T23:47:25.685Z,87.97
2016-11-25T23:47:53.611Z,88.22
2016-11-25T23:48:21.341Z,88.31
2016-11-25T23:48:48.920Z,87.74
2016-11-25T23:49:16.622Z,87.78
2016-11-25T23:49:45.019Z,88.31
2016-11-25T23:50:12.904Z,88.41
2016-11-25T23:50:40.481Z,87.93
2016-11-25T23:51:08.379Z,87.35
2016-11-25T23:51:35.969Z,87.35
2016-11-25T23:52:03.872Z,86.87
2016-11-25T23:52:31.558Z,86.77
2016-11-25T23:52:59.482Z,86.68
2016-11-25T23:53:27.091Z,87.26
2016-11-25T23:53:54.736Z,87.06
2016-11-25T23:54:22.372Z,87.06
2016-11-25T23:54:50.302Z,86.77
2016-11-25T23:55:18.224Z,87.26
2016-11-25T23:55:46.417Z,87.26
2016-11-25T23:56:14.033Z,86.87
2016-11-25T23:56:42.242Z,86.87
2016-11-25T23:57:09.815Z,86.87
2016-11-25T23:57:37.476Z,87.83
2016-11-25T23:58:05.047Z,87.74
2016-11-25T23:58:32.914Z,87.64
2016-11-25T23:59:00.820Z,87.26
2016-11-25T23:59:28.739Z,87.64
2016-11-25T23:59:56.318Z,87.93
